KMQB

Macomb Municipal Airport

Macomb, Illinois, USA
METAR KMQB 211415Z AUTO 23006KT 10SM CLR 01/M03 A3043 RMK AO2 T00141028
Observed Flight Rules
Oct-21 @ 14:15 UTC (22 minutes ago) Visual Flight Rules
Wind Visibility Clouds
230° at 6 knots 10 miles
  • Clear skies
Temperatures Readings
Current 1°C / 34°F
Dewpoint -3°C / 27°F
Humidity 75%
Altimeter 30.43" Hg
Pressure 1030 hPa
Elevation 215
METAR KMQB 211415Z AUTO 23006KT 10SM CLR 01/M03 A3043 RMK AO2 T00141028
Observed Flight Rules
Oct-21 @ 14:15 UTC
(22 minutes ago)
VFR
Wind Visibility
230° at 6 knots 10 miles
Clouds
  • Clear skies
Temperature Dewpoint
1°C / 34°F -3°C / 27°F
Humidity Altimeter Pressure
75% 30.43" Hg 1030 hPa